Time;durP1;ratioP1;P1;durP2;ratioP2;P2;SDS_P1;SDS_P2;PMS_P1;PMS_P2;Temp;Humidity;BMP_temperature;BMP_pressure;BME280_temperature;BME280_humidity;BME280_pressure;Samples;Min_cycle;Max_cycle;Signal;HPM_P1;HPM_P2
2023/06/14 00:01:53;;;;;;;5.20;4.80;;;;;;;14.98;100.00;102011.13;5031246;28;20947;-46
2023/06/14 00:04:21;;;;;;;4.90;4.40;;;;;;;14.97;100.00;102013.00;5031296;28;20519;-43
2023/06/14 00:06:50;;;;;;;5.43;4.80;;;;;;;14.95;100.00;102012.38;5031480;28;20424;-44
2023/06/14 00:09:19;;;;;;;10.63;5.40;;;;;;;14.94;100.00;102013.38;5008677;28;20456;-46
2023/06/14 00:11:47;;;;;;;6.17;5.77;;;;;;;14.90;100.00;102018.31;5030694;28;20475;-48
2023/06/14 00:14:15;;;;;;;5.63;5.13;;;;;;;14.91;100.00;102016.44;5031497;28;20460;-45
2023/06/14 00:16:43;;;;;;;6.13;5.13;;;;;;;14.84;100.00;102013.69;5030985;28;20980;-45
2023/06/14 00:19:11;;;;;;;5.50;5.10;;;;;;;14.81;100.00;102013.28;5008016;28;20483;-46
2023/06/14 00:21:39;;;;;;;6.03;5.00;;;;;;;14.80;100.00;102020.50;5031019;28;20432;-45
2023/06/14 00:24:08;;;;;;;6.13;5.60;;;;;;;14.79;100.00;102018.84;5031339;28;20436;-46
2023/06/14 00:26:37;;;;;;;6.53;6.00;;;;;;;14.80;100.00;102023.19;5030999;28;20960;-45
2023/06/14 00:29:05;;;;;;;6.30;5.80;;;;;;;14.79;100.00;102020.69;5031176;28;20428;-43
2023/06/14 00:31:32;;;;;;;5.80;5.20;;;;;;;14.77;100.00;102028.94;5008005;28;20467;-49
2023/06/14 00:34:00;;;;;;;9.27;6.30;;;;;;;14.77;100.00;102022.75;5031165;28;20457;-44
2023/06/14 00:36:28;;;;;;;6.00;5.50;;;;;;;14.78;100.00;102027.09;5031302;28;20498;-45
2023/06/14 00:38:56;;;;;;;6.83;6.30;;;;;;;14.74;100.00;102034.69;5030854;28;20467;-47
2023/06/14 00:41:23;;;;;;;6.37;5.97;;;;;;;14.75;100.00;102022.13;5008008;28;20460;-43
2023/06/14 00:43:55;;;;;;;6.00;5.60;;;;;;;14.76;100.00;102037.19;5031022;28;20499;-47
2023/06/14 00:46:23;;;;;;;7.43;6.70;;;;;;;14.74;100.00;102036.56;5030714;28;20432;-49
2023/06/14 00:48:51;;;;;;;8.37;6.73;;;;;;;14.71;100.00;102032.41;5031213;28;20451;-45
2023/06/14 00:51:19;;;;;;;7.50;6.80;;;;;;;14.72;100.00;102036.75;5008008;28;21129;-43
2023/06/14 00:53:47;;;;;;;7.13;6.63;;;;;;;14.70;100.00;102041.47;5030739;28;20440;-47
2023/06/14 00:56:16;;;;;;;8.23;7.53;;;;;;;14.70;100.00;102044.16;5030574;28;20964;-45
2023/06/14 00:58:44;;;;;;;7.50;6.80;;;;;;;14.69;100.00;102031.78;5030375;28;20487;-46
2023/06/14 01:01:14;;;;;;;8.03;7.40;;;;;;;14.68;100.00;102045.38;5007206;28;20488;-46
2023/06/14 01:03:41;;;;;;;8.10;7.47;;;;;;;14.65;100.00;102040.38;5029936;28;20467;-44
2023/06/14 01:06:26;;;;;;;8.07;7.47;;;;;;;14.62;100.00;102035.41;5030807;28;20425;-46
2023/06/14 01:09:04;;;;;;;7.17;6.50;;;;;;;14.59;100.00;102038.47;5030403;28;20535;-46
2023/06/14 01:11:36;;;;;;;12.53;8.60;;;;;;;14.59;100.00;102033.94;5007445;28;20471;-44
2023/06/14 01:14:05;;;;;;;10.53;8.13;;;;;;;14.63;100.00;102042.44;5030345;28;20486;-45
2023/06/14 01:16:36;;;;;;;8.00;7.40;;;;;;;14.59;100.00;102044.66;5030797;28;20428;-45
2023/06/14 01:19:04;;;;;;;8.47;7.00;;;;;;;14.63;100.00;102045.97;5030360;28;20417;-47
2023/06/14 01:21:41;;;;;;;8.50;8.00;;;;;;;14.63;100.00;102042.44;5007319;28;20892;-47
2023/06/14 01:24:10;;;;;;;8.77;7.93;;;;;;;14.63;100.00;102045.97;5030950;28;20416;-45
2023/06/14 01:26:46;;;;;;;8.70;8.00;;;;;;;14.65;100.00;102049.28;5029059;28;20436;-45
2023/06/14 01:29:17;;;;;;;9.73;8.17;;;;;;;14.66;100.00;102048.28;5027336;28;20416;-49
2023/06/14 01:31:46;;;;;;;9.70;8.70;;;;;;;14.68;100.00;102053.44;5004706;28;20459;-45
2023/06/14 01:34:14;;;;;;;9.20;8.40;;;;;;;14.70;100.00;102041.47;5029208;28;20460;-43
2023/06/14 01:36:43;;;;;;;9.97;9.17;;;;;;;14.69;100.00;102044.38;5030083;28;21174;-46
2023/06/14 01:39:15;;;;;;;10.67;9.80;;;;;;;14.66;100.00;102042.91;5030262;28;20424;-48
2023/06/14 01:41:45;;;;;;;9.63;9.03;;;;;;;14.67;100.00;102044.53;5003929;28;21005;-48
2023/06/14 01:44:15;;;;;;;8.80;8.30;;;;;;;14.65;100.00;102049.28;5029506;28;20424;-45
2023/06/14 01:46:44;;;;;;;9.10;8.47;;;;;;;14.67;100.00;102046.38;5029980;28;20436;-49
2023/06/14 01:49:12;;;;;;;9.73;9.03;;;;;;;14.68;100.00;102050.75;5029754;28;20440;-44
2023/06/14 01:51:40;;;;;;;10.77;9.70;;;;;;;14.67;100.00;102043.69;5008865;28;20460;-44
2023/06/14 01:54:08;;;;;;;9.63;9.03;;;;;;;14.67;100.00;102041.84;5030154;28;20429;-43
2023/06/14 01:56:37;;;;;;;10.20;9.40;;;;;;;14.66;100.00;102045.59;5029743;28;20424;-47
2023/06/14 01:59:05;;;;;;;9.93;9.10;;;;;;;14.66;100.00;102039.38;5030645;28;20438;-49
2023/06/14 02:01:34;;;;;;;10.43;9.50;;;;;;;14.64;100.00;102044.09;5017496;28;20483;-44
2023/06/14 02:04:02;;;;;;;10.13;9.33;;;;;;;14.61;100.00;102045.31;5022023;23;20533;-43
2023/06/14 02:06:29;;;;;;;9.77;8.77;;;;;;;14.63;100.00;102031.72;4990801;28;20993;-45
2023/06/14 02:08:57;;;;;;;8.93;8.43;;;;;;;14.60;100.00;102034.78;4992193;28;20780;-48
2023/06/14 02:11:25;;;;;;;11.63;9.20;;;;;;;14.59;100.00;102047.34;4990804;28;20426;-43
2023/06/14 02:13:55;;;;;;;10.47;9.37;;;;;;;14.57;100.00;102041.34;4963336;28;20446;-43
2023/06/14 02:16:22;;;;;;;17.30;9.40;;;;;;;14.54;100.00;102049.78;4990862;28;20484;-45
2023/06/14 02:18:51;;;;;;;10.00;9.30;;;;;;;14.49;100.00;102054.88;4990393;28;20977;-44
2023/06/14 02:21:19;;;;;;;10.40;9.50;;;;;;;14.51;100.00;102049.34;4990240;28;21017;-44
2023/06/14 02:23:47;;;;;;;10.10;9.47;;;;;;;14.49;100.00;102049.50;4965900;28;20489;-45
2023/06/14 02:26:15;;;;;;;10.80;9.80;;;;;;;14.51;100.00;102044.81;4990967;28;20547;-43
2023/06/14 02:28:43;;;;;;;11.30;10.50;;;;;;;14.53;100.00;102044.59;4990850;28;20484;-45
2023/06/14 02:31:12;;;;;;;10.97;10.43;;;;;;;14.56;100.00;102046.91;4991894;28;20477;-43
2023/06/14 02:33:40;;;;;;;11.73;10.90;;;;;;;14.57;100.00;102049.41;4968037;28;20470;-44
2023/06/14 02:36:08;;;;;;;10.57;9.77;;;;;;;14.61;100.00;102047.16;4990671;28;20426;-45
2023/06/14 02:38:36;;;;;;;11.13;10.17;;;;;;;14.60;100.00;102043.66;4991733;28;20426;-44
2023/06/14 02:41:05;;;;;;;10.87;10.23;;;;;;;14.60;100.00;102043.66;4990748;28;20481;-46
2023/06/14 02:43:33;;;;;;;11.43;10.73;;;;;;;14.63;100.00;102048.66;4967567;28;20517;-43
2023/06/14 02:46:01;;;;;;;11.37;10.43;;;;;;;14.64;100.00;102044.09;4991385;28;20430;-45
2023/06/14 02:48:32;;;;;;;11.57;10.50;;;;;;;14.64;100.00;102049.47;4991011;28;20496;-45
2023/06/14 02:51:00;;;;;;;11.53;10.73;;;;;;;14.63;100.00;102062.06;4990812;28;20433;-47
2023/06/14 02:53:28;;;;;;;12.27;11.10;;;;;;;14.63;100.00;102048.66;4964355;28;20486;-47
2023/06/14 02:55:56;;;;;;;11.83;10.73;;;;;;;14.64;100.00;102049.47;4962836;28;20504;-46
2023/06/14 02:58:25;;;;;;;11.03;10.13;;;;;;;14.66;100.00;102059.00;4967551;28;21023;-45
2023/06/14 03:00:53;;;;;;;11.40;10.60;;;;;;;14.65;100.00;102054.66;4974709;28;20478;-45
2023/06/14 03:03:24;;;;;;;11.93;11.03;;;;;;;14.67;100.00;102054.44;4973418;28;20466;-44
2023/06/14 03:05:54;;;;;;;10.53;9.97;;;;;;;14.73;100.00;102059.03;4973635;28;20433;-44
2023/06/14 03:08:26;;;;;;;11.80;10.77;;;;;;;14.76;100.00;102055.97;4948432;28;20875;-48
2023/06/14 03:10:55;;;;;;;13.73;11.43;;;;;;;14.80;100.00;102057.28;4973177;28;20439;-50
2023/06/14 03:13:23;;;;;;;11.30;10.40;;;;;;;14.82;100.00;102055.22;4973268;28;20459;-50
2023/06/14 03:15:51;;;;;;;11.33;10.73;;;;;;;14.87;100.00;102047.44;4973659;28;20462;-46
2023/06/14 03:18:22;;;;;;;12.20;11.23;;;;;;;14.90;100.00;102058.59;4948273;28;20458;-46
2023/06/14 03:20:56;;;;;;;13.20;11.60;;;;;;;14.93;100.00;102065.47;4973502;28;20844;-44
2023/06/14 03:23:25;;;;;;;11.80;11.13;;;;;;;14.96;100.00;102057.81;4972746;28;20559;-45
2023/06/14 03:25:53;;;;;;;13.00;12.00;;;;;;;15.16;100.00;102063.38;4973901;28;20479;-44
2023/06/14 03:28:20;;;;;;;12.50;11.47;;;;;;;15.70;100.00;102063.59;4941371;28;20460;-45
2023/06/14 03:30:48;;;;;;;12.40;11.67;;;;;;;16.28;100.00;102061.34;4973221;28;20431;-43
2023/06/14 03:33:16;;;;;;;12.47;11.67;;;;;;;16.41;100.00;102056.00;4972739;28;20462;-44
2023/06/14 03:35:44;;;;;;;11.87;11.20;;;;;;;16.38;100.00;102051.88;4972651;28;20987;-47
2023/06/14 03:38:13;;;;;;;12.80;11.90;;;;;;;16.17;100.00;102060.06;4955279;28;20470;-45
2023/06/14 03:40:41;;;;;;;10.60;9.80;;;;;;;16.05;100.00;102056.28;4972946;28;20434;-44
2023/06/14 03:43:09;;;;;;;11.60;10.80;;;;;;;15.86;100.00;102059.75;4972449;28;20583;-44
2023/06/14 03:45:36;;;;;;;11.77;10.47;;;;;;;15.80;100.00;102063.22;4972845;28;20439;-44
2023/06/14 03:48:06;;;;;;;11.40;10.30;;;;;;;15.77;100.00;102063.63;4948254;28;20510;-46
2023/06/14 03:50:34;;;;;;;11.60;9.80;;;;;;;15.82;100.00;102056.63;4972250;28;20849;-45
2023/06/14 03:53:02;;;;;;;10.80;10.10;;;;;;;15.83;100.00;102058.25;4972166;28;21015;-50
2023/06/14 03:55:32;;;;;;;10.80;10.10;;;;;;;15.96;100.00;102062.88;4972801;28;20800;-46
2023/06/14 03:58:03;;;;;;;10.20;9.30;;;;;;;16.01;100.00;102055.03;4947843;28;20497;-46
2023/06/14 04:00:31;;;;;;;11.80;11.00;;;;;;;16.08;100.00;102066.66;4972214;28;20466;-46
2023/06/14 04:02:59;;;;;;;10.77;10.17;;;;;;;16.09;100.00;102068.34;4972220;28;20533;-44
2023/06/14 04:05:27;;;;;;;11.97;11.13;;;;;;;16.14;100.00;102073.09;4972673;28;20522;-49
2023/06/14 04:07:56;;;;;;;11.00;9.97;;;;;;;16.10;100.00;102072.66;4972222;28;20956;-48
2023/06/14 04:10:24;;;;;;;11.27;10.37;;;;;;;16.13;100.00;102074.94;4947732;28;20843;-45
2023/06/14 04:12:53;;;;;;;12.63;11.00;;;;;;;16.12;100.00;102084.06;4972479;28;20462;-47
2023/06/14 04:15:20;;;;;;;12.17;11.37;;;;;;;16.24;100.00;102079.78;4971976;28;20998;-44
2023/06/14 04:17:49;;;;;;;11.27;10.50;;;;;;;16.26;100.00;102080.41;4972626;28;20493;-44
2023/06/14 04:20:17;;;;;;;12.27;11.10;;;;;;;16.29;100.00;102081.84;4947078;28;20517;-43
2023/06/14 04:22:45;;;;;;;11.20;10.40;;;;;;;16.28;100.00;102094.47;4972402;28;20533;-44
2023/06/14 04:25:13;;;;;;;10.00;9.50;;;;;;;16.26;100.00;102093.03;4971915;28;20443;-44
2023/06/14 04:27:41;;;;;;;10.87;10.07;;;;;;;16.64;100.00;102101.44;4971839;28;20441;-45
2023/06/14 04:30:13;;;;;;;12.43;11.03;;;;;;;17.67;100.00;102091.78;4947096;28;20435;-44
2023/06/14 04:32:42;;;;;;;11.30;10.40;;;;;;;19.21;100.00;102087.91;4971137;28;20450;-45
2023/06/14 04:35:11;;;;;;;11.10;9.10;;;;;;;20.52;100.00;102074.81;4972014;28;21019;-47
2023/06/14 04:37:41;;;;;;;8.80;8.00;;;;;;;21.53;100.00;102075.47;4971741;28;20999;-43
2023/06/14 04:40:10;;;;;;;8.37;7.73;;;;;;;22.16;100.00;102074.69;4971841;28;20485;-44
2023/06/14 04:42:40;;;;;;;8.20;7.70;;;;;;;23.07;100.00;102066.34;4943601;28;20481;-45
2023/06/14 04:45:09;;;;;;;7.10;6.63;;;;;;;23.87;100.00;102062.34;4971558;28;20936;-44
2023/06/14 04:47:40;;;;;;;8.20;6.10;;;;;;;24.54;100.00;102063.75;4971465;28;20458;-45
2023/06/14 04:50:10;;;;;;;7.27;6.57;;;;;;;24.66;94.75;102075.31;4972029;28;20437;-48
2023/06/14 04:52:38;;;;;;;6.27;5.70;;;;;;;25.51;94.26;102059.91;4946438;28;20486;-45
2023/06/14 04:55:06;;;;;;;6.10;5.50;;;;;;;25.97;90.36;102069.19;4971678;28;20481;-45
2023/06/14 04:57:34;;;;;;;7.30;6.37;;;;;;;25.86;78.95;102063.66;4971651;28;20481;-46
2023/06/14 05:00:04;;;;;;;6.40;5.87;;;;;;;26.24;71.81;102073.41;4971830;28;20433;-48
2023/06/14 05:02:31;;;;;;;7.03;6.33;;;;;;;26.13;68.42;102074.47;4946068;28;20522;-49
2023/06/14 05:05:01;;;;;;;5.83;5.47;;;;;;;26.12;72.91;102072.81;4970955;28;20860;-49
2023/06/14 05:07:29;;;;;;;10.33;6.00;;;;;;;26.40;74.88;102077.81;4971250;28;20448;-47
2023/06/14 05:09:57;;;;;;;7.20;5.63;;;;;;;26.12;61.97;102070.06;4971470;28;20767;-48
2023/06/14 05:12:24;;;;;;;6.57;5.60;;;;;;;26.27;66.93;102078.34;4945762;28;20670;-49
2023/06/14 05:14:52;;;;;;;5.60;5.20;;;;;;;26.38;68.31;102071.81;4971331;28;20951;-45
2023/06/14 05:17:20;;;;;;;7.13;5.70;;;;;;;27.02;64.69;102076.03;4971672;28;20481;-45
2023/06/14 05:19:48;;;;;;;5.53;5.13;;;;;;;27.05;58.80;102080.97;4970571;28;20461;-44
2023/06/14 05:22:17;;;;;;;6.20;4.90;;;;;;;27.15;63.59;102072.75;4945920;28;20841;-45
2023/06/14 05:24:45;;;;;;;5.30;4.90;;;;;;;27.50;60.01;102080.13;4971155;28;20435;-50
2023/06/14 05:27:13;;;;;;;5.20;4.80;;;;;;;27.73;60.61;102077.59;4971044;28;20274;-44
2023/06/14 05:29:41;;;;;;;4.43;4.03;;;;;;;27.93;58.23;102071.19;4970692;28;20195;-46
2023/06/14 05:32:09;;;;;;;5.03;4.63;;;;;;;27.65;58.29;102069.94;4947928;28;20493;-45
2023/06/14 05:34:37;;;;;;;5.77;4.87;;;;;;;27.61;53.57;102081.72;4971663;28;20293;-46
2023/06/14 05:37:05;;;;;;;4.77;4.33;;;;;;;27.99;54.30;102068.16;4970899;28;20434;-44
2023/06/14 05:39:34;;;;;;;5.37;4.80;;;;;;;27.54;53.97;102083.97;4971528;28;20294;-45
2023/06/14 05:42:03;;;;;;;5.23;4.90;;;;;;;27.86;51.89;102079.75;4970581;28;20310;-46
2023/06/14 05:44:30;;;;;;;4.60;4.33;;;;;;;27.90;52.93;102078.06;4956469;28;20316;-45
2023/06/14 05:46:58;;;;;;;5.00;4.30;;;;;;;27.91;53.86;102087.94;4990422;28;20194;-44
2023/06/14 05:49:26;;;;;;;9.00;5.17;;;;;;;28.21;52.46;102070.56;4990409;28;20288;-44
2023/06/14 05:51:54;;;;;;;8.70;5.07;;;;;;;28.00;53.81;102082.69;4990507;28;20252;-45
2023/06/14 05:54:21;;;;;;;8.77;5.10;;;;;;;27.97;52.36;102083.25;4966841;28;20896;-44
2023/06/14 05:56:50;;;;;;;6.83;4.50;;;;;;;28.53;51.66;102086.56;4990548;28;20225;-44
2023/06/14 05:59:18;;;;;;;4.97;4.57;;;;;;;28.59;53.15;102082.66;4989918;28;20446;-45
2023/06/14 06:01:46;;;;;;;5.00;4.50;;;;;;;28.65;50.93;102081.56;4990005;28;20194;-45
2023/06/14 06:04:14;;;;;;;5.13;4.57;;;;;;;28.98;49.68;102080.75;4966585;28;20249;-46
2023/06/14 06:06:42;;;;;;;5.80;5.30;;;;;;;29.30;49.32;102079.44;4990075;28;20194;-46
2023/06/14 06:09:09;;;;;;;4.77;4.40;;;;;;;29.05;49.39;102088.69;4990092;28;20289;-48
2023/06/14 06:11:37;;;;;;;5.47;4.93;;;;;;;29.05;49.83;102074.94;4990238;28;20285;-47
2023/06/14 06:14:21;;;;;;;5.33;4.83;;;;;;;29.09;50.63;102085.06;4978296;28;20253;-48
2023/06/14 06:16:49;;;;;;;5.27;4.90;;;;;;;29.35;47.43;102096.69;4990020;28;20590;-45
2023/06/14 06:19:16;;;;;;;7.50;4.97;;;;;;;29.16;48.90;102087.47;4990375;28;20443;-48
2023/06/14 06:21:44;;;;;;;5.17;4.67;;;;;;;28.94;48.43;102089.88;4990232;28;20592;-46
2023/06/14 06:24:12;;;;;;;4.83;4.20;;;;;;;29.09;47.25;102093.28;4969321;28;20280;-50
2023/06/14 06:26:40;;;;;;;5.30;4.70;;;;;;;29.19;47.22;102083.31;4970839;28;20569;-45
2023/06/14 06:29:08;;;;;;;4.93;4.50;;;;;;;29.06;48.92;102098.56;4967116;28;20565;-45
2023/06/14 06:31:37;;;;;;;5.33;4.83;;;;;;;28.75;47.96;102099.91;4952519;28;20203;-47
2023/06/14 06:34:05;;;;;;;5.17;4.67;;;;;;;28.55;47.29;102104.38;4955681;28;20539;-49
2023/06/14 06:36:32;;;;;;;4.93;4.63;;;;;;;28.84;47.80;102104.50;4930593;28;20215;-42
2023/06/14 06:39:00;;;;;;;5.63;5.17;;;;;;;28.99;46.34;102106.31;4955044;29;20235;-43
2023/06/14 06:41:28;;;;;;;5.20;4.70;;;;;;;29.10;46.66;102102.34;4954331;29;20203;-48
2023/06/14 06:43:56;;;;;;;7.53;5.47;;;;;;;29.61;45.48;102116.47;4954790;29;20227;-46
2023/06/14 06:46:23;;;;;;;7.27;5.23;;;;;;;29.55;46.06;102110.22;4930126;28;20267;-45
2023/06/14 06:48:53;;;;;;;5.50;3.93;;;;;;;30.04;44.96;102111.91;4955037;29;20290;-45
2023/06/14 06:51:21;;;;;;;4.80;4.50;;;;;;;29.49;44.29;102116.88;4954434;29;20246;-45
2023/06/14 06:53:53;;;;;;;5.20;4.80;;;;;;;29.77;45.34;102122.63;4955086;28;20306;-47
2023/06/14 06:56:22;;;;;;;5.40;5.10;;;;;;;29.40;46.55;102123.28;4929861;28;20230;-44
2023/06/14 06:58:50;;;;;;;5.33;5.00;;;;;;;29.26;45.63;102125.06;4954437;29;20246;-44
2023/06/14 07:01:18;;;;;;;4.73;4.43;;;;;;;29.53;46.95;102128.09;4954914;29;20203;-47
2023/06/14 07:03:47;;;;;;;5.20;4.80;;;;;;;29.73;46.77;102127.88;4953987;29;20228;-45
2023/06/14 07:06:18;;;;;;;5.50;5.00;;;;;;;29.84;43.99;102129.44;4943407;28;20751;-46
2023/06/14 07:08:48;;;;;;;6.63;4.93;;;;;;;29.67;45.45;102125.47;4973662;28;20199;-45
2023/06/14 07:11:15;;;;;;;5.43;5.03;;;;;;;29.91;44.03;102134.59;4973484;28;20669;-44
2023/06/14 07:13:43;;;;;;;5.60;5.07;;;;;;;29.07;43.92;102135.91;4973137;28;20249;-48
2023/06/14 07:16:11;;;;;;;4.40;4.10;;;;;;;29.05;46.44;102133.44;4973848;28;20195;-46
2023/06/14 07:18:39;;;;;;;7.07;5.00;;;;;;;28.66;46.49;102142.78;4948869;28;20207;-45
2023/06/14 07:21:06;;;;;;;5.80;5.23;;;;;;;28.36;46.41;102135.50;4973308;28;20344;-45
2023/06/14 07:23:35;;;;;;;4.93;4.63;;;;;;;28.76;46.61;102143.56;4973133;28;20478;-47
2023/06/14 07:26:03;;;;;;;5.20;4.80;;;;;;;29.08;45.88;102138.38;4973460;28;20203;-44
2023/06/14 07:28:31;;;;;;;5.00;4.70;;;;;;;29.24;46.67;102133.56;4945474;28;20258;-48
2023/06/14 07:30:59;;;;;;;6.10;5.20;;;;;;;29.35;45.60;102137.91;4968605;28;20195;-50
2023/06/14 07:33:27;;;;;;;5.20;4.80;;;;;;;29.40;46.34;102142.50;4972827;28;20215;-52
2023/06/14 07:35:55;;;;;;;5.00;4.60;;;;;;;29.06;44.59;102142.53;4973146;28;20780;-50
2023/06/14 07:38:23;;;;;;;5.70;5.30;;;;;;;29.52;44.63;102137.44;4961444;28;20353;-45
2023/06/14 07:40:52;;;;;;;5.43;5.03;;;;;;;29.22;44.55;102137.69;4992171;28;20203;-44
2023/06/14 07:43:19;;;;;;;4.70;4.50;;;;;;;29.32;44.79;102141.22;4992921;28;20556;-48
2023/06/14 07:45:49;;;;;;;9.13;5.10;;;;;;;28.91;46.31;102137.94;4993056;28;20580;-46
2023/06/14 07:48:33;;;;;;;6.67;5.97;;;;;;;28.99;44.51;102139.25;4972063;28;20241;-44
2023/06/14 07:51:01;;;;;;;5.37;5.07;;;;;;;28.89;45.74;102144.81;4972543;28;20207;-44
2023/06/14 07:53:30;;;;;;;5.10;4.70;;;;;;;28.94;45.25;102144.81;4972954;28;20215;-45
2023/06/14 07:55:59;;;;;;;6.20;5.70;;;;;;;28.54;45.18;102141.19;4972628;28;20195;-44
2023/06/14 07:58:27;;;;;;;6.93;5.17;;;;;;;28.33;46.26;102136.88;4973081;28;20206;-46
2023/06/14 08:00:55;;;;;;;4.80;4.37;;;;;;;27.85;45.53;102141.16;4949571;28;20261;-44
2023/06/14 08:03:23;;;;;;;5.37;4.97;;;;;;;27.26;47.70;102145.59;4972382;28;20270;-44
2023/06/14 08:05:51;;;;;;;4.90;4.60;;;;;;;27.27;48.31;102144.50;4973202;28;20237;-45
2023/06/14 08:08:19;;;;;;;4.73;4.43;;;;;;;27.37;49.19;102152.69;4972812;28;20199;-44
2023/06/14 08:10:47;;;;;;;6.17;5.60;;;;;;;26.83;49.03;102147.72;4942992;28;20477;-45
2023/06/14 08:13:16;;;;;;;5.97;5.57;;;;;;;26.45;50.34;102145.41;4971583;28;20537;-49
2023/06/14 08:15:44;;;;;;;5.70;5.30;;;;;;;25.85;52.88;102144.03;4972272;28;20465;-44
2023/06/14 08:18:12;;;;;;;7.53;4.90;;;;;;;25.66;53.34;102137.34;4971591;28;20521;-44
2023/06/14 08:20:40;;;;;;;6.10;5.50;;;;;;;25.46;54.60;102145.34;4972134;28;20800;-44
2023/06/14 08:23:08;;;;;;;5.63;5.20;;;;;;;25.22;55.56;102139.44;4948841;28;20478;-44
2023/06/14 08:25:36;;;;;;;6.13;5.73;;;;;;;25.03;57.41;102131.91;4972636;28;20686;-45
2023/06/14 08:28:04;;;;;;;5.57;5.07;;;;;;;24.68;58.66;102137.78;4972557;28;20431;-44
2023/06/14 08:30:33;;;;;;;7.70;6.00;;;;;;;24.64;59.23;102142.13;4972680;28;20427;-46
2023/06/14 08:33:01;;;;;;;6.50;5.83;;;;;;;24.55;61.37;102132.75;4950501;28;20529;-49
2023/06/14 08:35:43;;;;;;;8.20;5.80;;;;;;;24.45;64.16;102136.19;4971917;28;20407;-45
2023/06/14 08:38:11;;;;;;;6.30;5.80;;;;;;;24.47;64.44;102139.47;4971954;28;21018;-44
2023/06/14 08:40:42;;;;;;;5.33;4.93;;;;;;;24.31;68.14;102145.00;4972074;28;20427;-44
2023/06/14 08:43:10;;;;;;;5.53;4.60;;;;;;;24.47;67.45;102135.91;4956085;28;20983;-46
2023/06/14 08:45:39;;;;;;;7.00;5.33;;;;;;;24.44;68.12;102133.69;4972188;28;20855;-44
2023/06/14 08:48:08;;;;;;;7.20;5.70;;;;;;;24.38;67.48;102143.72;4971191;28;20442;-44
2023/06/14 08:50:41;;;;;;;10.50;6.70;;;;;;;24.38;70.19;102140.16;4971552;28;21146;-46
2023/06/14 08:53:13;;;;;;;6.93;5.77;;;;;;;24.31;68.19;102142.28;4954116;28;20471;-46
2023/06/14 08:55:41;;;;;;;6.00;5.57;;;;;;;24.22;68.76;102148.16;4970811;28;20497;-46
2023/06/14 08:58:14;;;;;;;9.77;5.10;;;;;;;24.17;70.22;102145.38;4971662;28;20442;-46
2023/06/14 09:00:44;;;;;;;5.57;5.27;;;;;;;23.89;74.71;102150.97;4971747;28;20928;-44
2023/06/14 09:03:14;;;;;;;8.80;5.83;;;;;;;23.73;79.14;102145.53;4959815;28;20470;-46
2023/06/14 09:05:43;;;;;;;5.83;5.43;;;;;;;23.74;75.91;102144.47;4971260;28;20557;-44
2023/06/14 09:08:11;;;;;;;11.03;6.13;;;;;;;23.85;74.39;102147.09;4971862;28;20462;-45
2023/06/14 09:10:40;;;;;;;6.13;5.63;;;;;;;23.96;76.04;102139.84;4971477;28;20434;-44
2023/06/14 09:13:09;;;;;;;8.27;6.00;;;;;;;24.08;77.42;102141.41;4947768;28;20495;-46
2023/06/14 09:15:37;;;;;;;11.07;5.40;;;;;;;24.03;72.32;102145.97;4970926;28;20525;-44
2023/06/14 09:18:06;;;;;;;6.40;5.80;;;;;;;23.73;75.55;102146.34;4971111;28;20512;-46
2023/06/14 09:20:34;;;;;;;7.23;6.00;;;;;;;23.64;75.93;102161.47;4976493;28;21023;-44
2023/06/14 09:23:05;;;;;;;6.10;5.60;;;;;;;23.57;77.00;102158.91;4954329;28;20504;-44
2023/06/14 09:25:33;;;;;;;7.37;5.80;;;;;;;23.67;75.39;102152.81;4980604;28;20470;-44
2023/06/14 09:28:08;;;;;;;6.90;6.20;;;;;;;23.50;77.27;102152.00;4978761;28;20454;-46
2023/06/14 09:30:37;;;;;;;5.97;5.50;;;;;;;23.74;74.57;102153.47;4979246;28;20502;-44
2023/06/14 09:33:07;;;;;;;7.60;5.70;;;;;;;23.80;75.04;102157.09;4954852;28;20482;-44
2023/06/14 09:35:35;;;;;;;6.00;5.50;;;;;;;23.87;71.69;102153.09;4979949;28;20440;-47
2023/06/14 09:38:04;;;;;;;6.53;5.97;;;;;;;23.88;72.00;102154.75;4979690;28;20427;-43
2023/06/14 09:40:36;;;;;;;9.13;5.93;;;;;;;24.06;72.34;102168.09;4978383;28;20469;-45
2023/06/14 09:43:08;;;;;;;6.00;5.50;;;;;;;23.94;71.75;102163.81;4978606;28;21066;-45
2023/06/14 09:45:36;;;;;;;6.80;6.30;;;;;;;24.10;71.12;102162.97;4956780;28;20490;-43
2023/06/14 09:48:05;;;;;;;6.27;4.90;;;;;;;24.04;69.09;102170.22;4978839;28;20434;-46
2023/06/14 09:50:36;;;;;;;6.37;5.87;;;;;;;23.95;69.58;102165.47;4979418;28;20429;-44
2023/06/14 09:53:07;;;;;;;6.03;5.50;;;;;;;24.38;69.48;102165.53;4977806;28;20454;-43
2023/06/14 09:55:36;;;;;;;8.17;5.70;;;;;;;24.43;68.40;102157.41;4967884;28;20486;-43
2023/06/14 09:58:06;;;;;;;6.00;5.50;;;;;;;24.45;70.00;102155.25;4978823;28;20431;-44
2023/06/14 10:00:36;;;;;;;6.10;5.70;;;;;;;24.52;66.61;102155.06;4978578;28;20435;-44
2023/06/14 10:03:12;;;;;;;5.83;5.20;;;;;;;24.32;69.96;102155.63;4978913;28;20489;-44
2023/06/14 10:05:44;;;;;;;6.43;5.80;;;;;;;24.08;72.74;102148.75;4954816;28;20491;-45
2023/06/14 10:08:16;;;;;;;5.73;5.40;;;;;;;24.11;70.16;102159.19;4982580;28;20445;-43
2023/06/14 10:10:45;;;;;;;5.83;5.43;;;;;;;24.41;70.79;102148.66;4982596;28;20449;-45
2023/06/14 10:13:14;;;;;;;6.10;5.70;;;;;;;24.46;67.96;102161.56;4982152;28;20446;-47
2023/06/14 10:15:51;;;;;;;6.63;5.40;;;;;;;24.50;68.26;102152.59;4959172;28;20466;-44
2023/06/14 10:18:25;;;;;;;7.10;5.63;;;;;;;24.69;65.97;102144.91;4983583;28;20425;-44
2023/06/14 10:21:04;;;;;;;6.50;4.80;;;;;;;24.66;65.68;102138.06;4982789;28;20426;-44
2023/06/14 10:23:36;;;;;;;5.67;5.23;;;;;;;24.86;64.02;102142.09;4982271;28;20727;-45
2023/06/14 10:26:04;;;;;;;6.70;6.20;;;;;;;24.85;63.32;102149.44;4959851;28;20494;-46
2023/06/14 10:28:32;;;;;;;6.07;5.53;;;;;;;24.80;62.83;102141.19;4982917;28;20481;-43
2023/06/14 10:31:04;;;;;;;8.00;5.70;;;;;;;24.93;62.19;102135.34;4982801;28;20922;-47
2023/06/14 10:33:34;;;;;;;5.83;5.43;;;;;;;24.85;63.68;102144.00;4981944;28;20451;-43
2023/06/14 10:36:11;;;;;;;5.97;5.47;;;;;;;24.99;60.24;102138.94;4959087;28;20972;-46
2023/06/14 10:38:39;;;;;;;6.00;4.70;;;;;;;24.80;60.38;102138.47;4981910;28;20426;-44
2023/06/14 10:41:07;;;;;;;5.33;4.93;;;;;;;24.83;60.65;102137.97;4981155;28;20438;-45
2023/06/14 10:43:35;;;;;;;5.50;5.00;;;;;;;24.93;60.72;102139.97;4981818;28;20513;-45
2023/06/14 10:46:15;;;;;;;5.60;5.10;;;;;;;24.97;60.73;102132.94;4958423;28;20486;-44
2023/06/14 10:48:44;;;;;;;6.00;5.57;;;;;;;24.57;61.17;102136.03;4981388;28;20987;-47
2023/06/14 10:51:24;;;;;;;5.60;4.73;;;;;;;24.86;61.13;102150.28;4980504;28;20493;-45
2023/06/14 10:53:52;;;;;;;5.03;4.63;;;;;;;24.87;60.54;102133.66;4981113;28;21070;-47
2023/06/14 10:56:30;;;;;;;5.37;4.97;;;;;;;24.81;58.92;102133.88;4957881;28;20987;-45
2023/06/14 10:58:58;;;;;;;5.90;5.40;;;;;;;24.97;61.14;102125.56;4980462;28;20437;-45
2023/06/14 11:01:41;;;;;;;6.23;5.67;;;;;;;24.78;60.52;102132.44;4981390;28;20430;-45
2023/06/14 11:04:11;;;;;;;5.87;5.47;;;;;;;24.91;60.05;102120.31;4981264;28;20475;-44
2023/06/14 11:06:47;;;;;;;7.83;5.00;;;;;;;25.21;60.02;102118.66;4958464;28;20580;-45
2023/06/14 11:09:53;;;;;;;5.73;5.00;;;;;;;24.89;62.02;102119.75;4980927;28;20410;-44
2023/06/14 11:12:22;;;;;;;5.27;4.83;;;;;;;25.06;57.74;102120.47;4981082;28;20422;-47
2023/06/14 11:14:50;;;;;;;5.63;5.13;;;;;;;25.17;58.71;102127.66;4979869;28;20458;-45
2023/06/14 11:17:18;;;;;;;6.70;5.30;;;;;;;25.29;60.19;102122.84;4957467;28;20548;-43
2023/06/14 11:19:46;;;;;;;6.50;4.77;;;;;;;25.11;58.68;102128.69;4980561;28;20439;-43
2023/06/14 11:22:16;;;;;;;6.73;5.27;;;;;;;25.12;58.29;102124.84;4981001;28;20458;-44
2023/06/14 11:24:44;;;;;;;5.13;4.83;;;;;;;24.87;60.29;102120.03;4980487;28;20415;-46
2023/06/14 11:27:12;;;;;;;5.53;5.13;;;;;;;24.78;59.43;102116.91;4957085;28;20458;-43
2023/06/14 11:29:48;;;;;;;4.67;4.27;;;;;;;24.97;58.64;102124.75;4979801;28;20446;-49